Time;durP1;ratioP1;P1;durP2;ratioP2;P2;SDS_P1;SDS_P2;PMS_P1;PMS_P2;Temp;Humidity;BMP_temperature;BMP_pressure;BME280_temperature;BME280_humidity;BME280_pressure;Samples;Min_cycle;Max_cycle;Signal;HPM_P1;HPM_P2
2023/11/08 00:07:21;;;;;;;21.60;11.90;;;;;;;5.91;100.00;99089.55;430292;1270;139557;-64
2023/11/08 00:17:27;;;;;;;17.40;12.00;;;;;;;5.96;100.00;99076.92;430053;1270;139660;-65
2023/11/08 00:27:34;;;;;;;16.60;10.90;;;;;;;6.00;100.00;99071.69;430205;1276;139538;-63
2023/11/08 00:37:40;;;;;;;16.50;12.10;;;;;;;6.00;100.00;99073.77;432010;1270;139370;-65
2023/11/08 00:47:46;;;;;;;17.40;13.50;;;;;;;5.89;100.00;99060.96;430096;1273;139484;-65
2023/11/08 00:57:52;;;;;;;22.80;11.50;;;;;;;5.75;100.00;99054.56;430479;1276;141111;-64
2023/11/08 01:07:58;;;;;;;15.60;11.10;;;;;;;5.69;100.00;99048.95;430584;1274;141019;-64
2023/11/08 01:18:05;;;;;;;13.90;10.50;;;;;;;5.70;100.00;99052.94;430984;1270;139425;-64
2023/11/08 01:28:11;;;;;;;17.80;11.00;;;;;;;5.70;100.00;99049.08;431369;1274;139738;-64
2023/11/08 01:38:17;;;;;;;13.80;9.40;;;;;;;5.68;100.00;99042.42;430246;1274;140824;-63
2023/11/08 01:48:24;;;;;;;12.80;9.70;;;;;;;5.63;100.00;99039.91;430389;1270;139382;-64
2023/11/08 01:58:31;;;;;;;14.80;9.50;;;;;;;5.45;100.00;99035.45;430078;1271;140075;-64
2023/11/08 02:08:38;;;;;;;22.10;9.90;;;;;;;5.24;100.00;99032.37;430131;1270;139575;-64
2023/11/08 02:18:43;;;;;;;13.40;8.70;;;;;;;4.98;100.00;99030.53;430769;1273;140255;-65
2023/11/08 02:28:50;;;;;;;16.10;11.30;;;;;;;4.73;100.00;99037.98;430974;1270;140028;-63
2023/11/08 02:38:56;;;;;;;10.30;7.70;;;;;;;4.57;100.00;99044.63;430880;1273;140588;-64
2023/11/08 02:49:03;;;;;;;14.10;9.00;;;;;;;4.57;100.00;99049.13;431044;1270;140582;-64
2023/11/08 02:59:10;;;;;;;11.90;8.00;;;;;;;4.72;100.00;99044.10;431536;1275;139178;-65
2023/11/08 03:09:16;;;;;;;10.10;7.70;;;;;;;4.89;100.00;99050.58;430636;1270;140326;-65
2023/11/08 03:19:22;;;;;;;11.90;9.30;;;;;;;5.01;100.00;99049.98;430505;1274;139634;-65
2023/11/08 03:29:31;;;;;;;13.30;8.70;;;;;;;5.11;100.00;99054.38;430624;1270;139344;-65
2023/11/08 03:39:37;;;;;;;10.30;7.60;;;;;;;5.19;100.00;99056.05;430282;1270;140479;-64
2023/11/08 03:49:43;;;;;;;12.40;7.60;;;;;;;5.22;100.00;99058.48;430606;1273;139309;-64
2023/11/08 03:59:50;;;;;;;10.30;6.70;;;;;;;5.27;100.00;99054.61;430728;1273;140239;-64
2023/11/08 04:09:56;;;;;;;10.50;7.70;;;;;;;5.32;100.00;99056.40;432023;1270;139365;-64
2023/11/08 04:20:03;;;;;;;9.90;7.70;;;;;;;5.36;100.00;99058.85;430766;1270;140569;-64
2023/11/08 04:30:11;;;;;;;;;;;;;;;5.33;100.00;99066.61;430686;1273;139292;-64
2023/11/08 04:40:18;;;;;;;12.60;6.90;;;;;;;5.14;100.00;99070.35;429935;1273;126016;-64
2023/11/08 04:50:24;;;;;;;12.00;6.30;;;;;;;5.08;100.00;99070.28;430530;1269;140009;-63
2023/11/08 05:00:30;;;;;;;8.40;6.80;;;;;;;5.03;100.00;99076.23;429701;1270;144368;-64
2023/11/08 05:10:37;;;;;;;8.60;7.10;;;;;;;4.85;100.00;99085.80;429700;1270;140124;-64
2023/11/08 05:20:44;;;;;;;8.70;6.60;;;;;;;4.70;100.00;99089.81;430246;1270;140444;-65
2023/11/08 05:30:49;;;;;;;11.90;7.30;;;;;;;4.70;100.00;99086.70;430007;1270;139052;-65
2023/11/08 05:40:55;;;;;;;10.30;8.00;;;;;;;4.73;100.00;99093.11;430403;1275;139253;-65
2023/11/08 05:51:02;;;;;;;10.40;7.20;;;;;;;4.78;100.00;99099.64;430136;1274;139401;-64
2023/11/08 06:01:09;;;;;;;9.40;7.70;;;;;;;4.84;100.00;99108.77;430312;1269;139254;-64
2023/11/08 06:11:16;;;;;;;9.20;6.40;;;;;;;4.89;100.00;99111.95;430168;1270;139439;-64
2023/11/08 06:21:22;;;;;;;10.00;6.80;;;;;;;5.02;100.00;99116.39;430659;1274;139124;-65
2023/11/08 06:31:34;;;;;;;9.50;7.20;;;;;;;5.16;100.00;99121.07;430299;1271;139240;-64
2023/11/08 06:41:41;;;;;;;6.80;5.90;;;;;;;5.31;100.00;99129.86;429658;1270;139556;-64
2023/11/08 06:51:48;;;;;;;9.10;6.80;;;;;;;5.49;100.00;99140.43;429759;1274;293708;-63
2023/11/08 07:01:54;;;;;;;10.60;7.60;;;;;;;5.70;100.00;99142.70;429734;1274;139195;-64
2023/11/08 07:12:00;;;;;;;7.90;6.00;;;;;;;6.00;100.00;99149.70;430135;1275;140773;-62
2023/11/08 07:22:07;;;;;;;6.20;5.60;;;;;;;6.37;100.00;99152.99;429922;1274;139936;-62
2023/11/08 07:32:14;;;;;;;8.80;7.00;;;;;;;6.76;100.00;99164.48;430433;1270;139245;-65
2023/11/08 07:42:21;;;;;;;11.20;6.30;;;;;;;6.95;100.00;99168.13;430154;1274;139159;-64
2023/11/08 07:52:26;;;;;;;;;;;;;;;7.18;100.00;99175.72;430106;1270;140431;-67
2023/11/08 08:02:32;;;;;;;8.20;4.60;;;;;;;7.51;100.00;99177.90;429967;1270;127088;-67
2023/11/08 08:12:38;;;;;;;7.60;4.30;;;;;;;8.01;100.00;99176.86;430077;1270;139258;-70
2023/11/08 08:22:52;;;;;;;5.30;3.50;;;;;;;8.52;100.00;99176.96;430152;1269;139502;-66
2023/11/08 08:32:59;;;;;;;5.30;2.60;;;;;;;8.74;100.00;99173.00;429872;1270;139962;-66
2023/11/08 08:43:05;;;;;;;2.60;2.20;;;;;;;8.79;100.00;99184.23;430111;1272;139959;-64
2023/11/08 08:53:12;;;;;;;2.70;2.20;;;;;;;8.64;100.00;99187.04;429813;1273;140240;-69
2023/11/08 09:03:18;;;;;;;3.60;2.80;;;;;;;8.58;100.00;99199.13;429943;1274;140139;-71
2023/11/08 09:13:24;;;;;;;3.80;3.00;;;;;;;8.57;100.00;99201.09;431587;1270;139823;-63
2023/11/08 09:23:31;;;;;;;3.90;2.50;;;;;;;8.59;100.00;99207.46;430285;1274;139426;-63
2023/11/08 09:33:36;;;;;;;7.70;2.40;;;;;;;8.59;100.00;99206.77;429825;1270;139588;-74
2023/11/08 09:43:45;;;;;;;3.60;2.10;;;;;;;8.64;100.00;99201.20;429799;1270;139462;-62
2023/11/08 09:53:51;;;;;;;5.50;2.50;;;;;;;8.97;100.00;99193.71;430270;1273;140472;-61
2023/11/08 10:03:58;;;;;;;3.30;1.90;;;;;;;9.33;100.00;99190.90;430415;1270;140911;-61
2023/11/08 10:14:04;;;;;;;4.30;2.80;;;;;;;9.52;100.00;99185.97;429909;1274;139336;-62
2023/11/08 10:24:16;;;;;;;3.00;2.40;;;;;;;9.63;100.00;99183.20;429973;1274;139600;-62
2023/11/08 10:34:27;;;;;;;4.80;2.90;;;;;;;9.81;99.92;99177.30;430264;1272;140329;-60
2023/11/08 10:44:33;;;;;;;4.20;2.10;;;;;;;10.03;99.72;99172.46;430441;1274;140658;-60
2023/11/08 10:54:39;;;;;;;3.60;1.70;;;;;;;10.00;98.39;99169.38;430025;1274;139333;-61
2023/11/08 11:04:46;;;;;;;2.90;2.60;;;;;;;10.03;98.45;99167.55;430674;1270;139796;-63
2023/11/08 11:14:56;;;;;;;7.90;6.20;;;;;;;10.17;97.53;99160.17;431391;1274;140025;-68
2023/11/08 11:25:03;;;;;;;3.70;2.10;;;;;;;9.83;96.48;99156.55;430543;1273;139427;-67
2023/11/08 11:35:10;;;;;;;3.10;1.80;;;;;;;9.39;96.25;99155.05;430243;1271;140048;-66
2023/11/08 11:45:18;;;;;;;3.80;2.30;;;;;;;9.07;96.93;99161.28;430635;1270;139209;-64
2023/11/08 11:55:25;;;;;;;2.20;1.90;;;;;;;8.60;98.02;99169.13;429909;1274;139001;-64
2023/11/08 12:05:31;;;;;;;2.10;1.50;;;;;;;8.87;99.93;99168.84;430222;1270;140012;-64
2023/11/08 12:15:37;;;;;;;2.90;1.40;;;;;;;9.50;100.00;99166.58;430581;1276;139684;-64
2023/11/08 12:25:43;;;;;;;3.80;2.20;;;;;;;9.43;99.67;99160.73;430686;1275;140201;-68
2023/11/08 12:35:49;;;;;;;4.90;2.30;;;;;;;9.07;99.22;99159.25;430531;1273;139703;-68
2023/11/08 12:46:03;;;;;;;2.90;2.50;;;;;;;8.77;99.72;99160.41;430516;1275;139109;-67
2023/11/08 12:56:36;;;;;;;3.30;1.20;;;;;;;8.55;99.60;99161.27;430860;1274;139909;-68
2023/11/08 13:06:42;;;;;;;2.50;1.60;;;;;;;8.68;99.99;99159.95;430166;1276;140926;-68
2023/11/08 13:16:48;;;;;;;3.90;2.10;;;;;;;8.79;99.69;99165.89;429936;1273;139392;-69
2023/11/08 13:26:54;;;;;;;4.20;1.90;;;;;;;8.54;99.28;99157.83;429939;1273;139060;-63
2023/11/08 13:37:02;;;;;;;2.50;1.90;;;;;;;8.48;99.67;99155.92;430277;1271;139636;-64
2023/11/08 13:47:09;;;;;;;4.50;2.00;;;;;;;8.53;99.75;99162.59;429856;1276;139147;-64
2023/11/08 13:57:15;;;;;;;2.70;1.60;;;;;;;8.50;99.33;99165.20;430633;1276;139312;-66
2023/11/08 14:07:21;;;;;;;2.30;1.80;;;;;;;8.41;99.12;99171.33;430381;1274;138888;-70
2023/11/08 14:17:31;;;;;;;3.50;1.60;;;;;;;8.32;98.94;99173.98;431747;1273;138922;-65
2023/11/08 14:27:37;;;;;;;7.90;2.50;;;;;;;8.20;99.25;99182.23;432607;1271;139083;-64
2023/11/08 14:37:44;;;;;;;4.00;2.40;;;;;;;8.05;99.33;99183.95;430317;1276;139834;-62
2023/11/08 14:47:51;;;;;;;5.50;3.20;;;;;;;7.91;99.66;99181.48;430346;1275;139281;-65
2023/11/08 14:57:57;;;;;;;4.50;2.50;;;;;;;7.79;99.99;99182.02;430255;1276;139020;-64
2023/11/08 15:08:04;;;;;;;4.00;3.00;;;;;;;7.68;100.00;99179.17;429645;1274;139090;-58
2023/11/08 15:18:30;;;;;;;;;;;;;;;7.59;100.00;99176.91;429819;1276;139161;-66
2023/11/08 15:28:36;;;;;;;5.30;4.10;;;;;;;7.54;100.00;99177.88;433436;1274;125642;-67
2023/11/08 15:38:44;;;;;;;5.20;2.90;;;;;;;7.50;100.00;99186.11;429670;1273;140719;-66
2023/11/08 15:48:51;;;;;;;2.80;2.10;;;;;;;7.43;100.00;99197.65;430087;1273;139051;-67
2023/11/08 15:58:57;;;;;;;3.50;2.70;;;;;;;7.23;100.00;99199.48;429924;1275;140181;-59
2023/11/08 16:09:04;;;;;;;4.90;3.30;;;;;;;7.11;100.00;99193.89;429440;1276;139477;-60
2023/11/08 16:19:13;;;;;;;4.60;4.00;;;;;;;6.94;100.00;99201.23;430062;1274;139491;-60
2023/11/08 16:29:20;;;;;;;9.20;5.60;;;;;;;6.82;100.00;99209.19;430529;1276;140869;-61
2023/11/08 16:39:45;;;;;;;29.40;11.30;;;;;;;6.75;100.00;99217.40;429964;1270;139232;-67
2023/11/08 16:49:52;;;;;;;34.90;15.50;;;;;;;6.65;100.00;99221.08;430111;1271;139540;-62
2023/11/08 16:59:58;;;;;;;26.00;13.60;;;;;;;6.54;100.00;99222.89;430152;1276;139929;-63
2023/11/08 17:10:08;;;;;;;18.80;11.80;;;;;;;6.47;100.00;99225.84;430111;1276;140516;-63
2023/11/08 17:20:15;;;;;;;28.80;16.50;;;;;;;6.42;100.00;99227.52;430215;1270;139742;-66
2023/11/08 17:30:21;;;;;;;72.20;35.50;;;;;;;6.27;100.00;99238.17;430116;1274;139493;-66
2023/11/08 17:40:27;;;;;;;15.80;10.80;;;;;;;6.14;100.00;99243.56;429781;1275;139464;-62
2023/11/08 17:50:33;;;;;;;17.30;12.30;;;;;;;5.99;100.00;99248.27;429446;1275;141824;-62
2023/11/08 18:00:40;;;;;;;19.00;14.10;;;;;;;5.83;100.00;99252.84;429898;1276;139491;-62
2023/11/08 18:10:46;;;;;;;39.80;21.10;;;;;;;5.91;100.00;99259.79;430094;1273;140343;-67
2023/11/08 18:20:53;;;;;;;19.80;13.90;;;;;;;5.98;100.00;99266.02;429935;1274;139412;-64
2023/11/08 18:30:58;;;;;;;;;;;;;;;6.03;100.00;99272.57;430010;1270;139415;-64
2023/11/08 18:41:04;;;;;;;10.60;8.50;;;;;;;6.06;100.00;99273.33;430118;1274;126214;-66
2023/11/08 18:51:11;;;;;;;16.00;9.30;;;;;;;6.03;100.00;99275.52;430008;1274;205278;-59
2023/11/08 19:01:19;;;;;;;14.40;11.60;;;;;;;6.02;100.00;99281.13;430170;1274;139735;-60
2023/11/08 19:11:28;;;;;;;16.30;11.60;;;;;;;6.01;100.00;99285.54;430113;1270;141500;-60
2023/11/08 19:21:34;;;;;;;14.40;9.70;;;;;;;5.99;100.00;99287.34;429932;1275;140492;-61
2023/11/08 19:31:40;;;;;;;16.70;12.30;;;;;;;5.97;100.00;99296.15;429975;1275;139826;-59
2023/11/08 19:41:46;;;;;;;14.90;9.90;;;;;;;5.97;100.00;99305.36;430718;1275;140965;-58
2023/11/08 19:51:53;;;;;;;17.00;12.80;;;;;;;6.00;100.00;99305.89;429896;1270;139849;-60
2023/11/08 20:01:59;;;;;;;12.10;10.80;;;;;;;5.97;100.00;99306.54;429881;1270;139575;-60
2023/11/08 20:12:05;;;;;;;13.30;10.60;;;;;;;5.93;100.00;99305.56;429895;1271;139849;-60
2023/11/08 20:22:14;;;;;;;13.80;10.80;;;;;;;5.87;100.00;99302.03;430599;1276;140046;-60
2023/11/08 20:32:20;;;;;;;18.10;12.40;;;;;;;5.76;100.00;99304.81;430216;1271;139880;-60
2023/11/08 20:42:29;;;;;;;11.40;10.30;;;;;;;5.67;100.00;99307.32;430520;1270;140751;-61
2023/11/08 20:52:37;;;;;;;15.20;11.40;;;;;;;5.55;100.00;99308.91;430897;1274;140346;-61
2023/11/08 21:02:43;;;;;;;12.30;10.60;;;;;;;5.53;100.00;99309.73;431127;1274;139873;-60
2023/11/08 21:12:50;;;;;;;15.40;10.00;;;;;;;5.44;100.00;99309.44;430752;1270;139627;-61
2023/11/08 21:22:55;;;;;;;;;;;;;;;5.36;100.00;99313.48;430906;1274;140083;-61
2023/11/08 21:33:02;;;;;;;16.10;11.50;;;;;;;5.30;100.00;99319.65;430271;1271;126347;-61
2023/11/08 21:43:08;;;;;;;13.80;9.60;;;;;;;5.32;100.00;99319.56;430485;1274;140471;-59
2023/11/08 21:53:15;;;;;;;14.90;10.90;;;;;;;5.28;100.00;99319.91;430301;1271;139356;-62
2023/11/08 22:03:22;;;;;;;18.00;11.70;;;;;;;5.28;100.00;99316.43;430749;1274;141979;-62
2023/11/08 22:13:29;;;;;;;17.00;11.60;;;;;;;5.33;100.00;99309.27;430832;1270;139357;-61
2023/11/08 22:23:35;;;;;;;19.30;13.90;;;;;;;5.35;100.00;99305.35;430361;1270;139593;-60
2023/11/08 22:33:42;;;;;;;16.00;13.50;;;;;;;5.37;100.00;99311.17;430061;1270;140004;-61
2023/11/08 22:43:48;;;;;;;13.70;10.00;;;;;;;5.34;100.00;99311.30;430718;1270;139727;-61
2023/11/08 22:53:55;;;;;;;13.50;10.80;;;;;;;5.32;100.00;99308.27;430238;1274;139788;-61
2023/11/08 23:04:01;;;;;;;11.50;9.10;;;;;;;5.31;100.00;99312.45;430140;1273;139607;-61
2023/11/08 23:14:07;;;;;;;9.90;8.30;;;;;;;5.32;100.00;99309.98;430399;1270;140040;-61
2023/11/08 23:24:13;;;;;;;12.60;8.20;;;;;;;5.21;100.00;99310.85;430204;1270;139135;-61
2023/11/08 23:34:21;;;;;;;9.90;7.70;;;;;;;4.88;100.00;99304.34;430490;1270;139482;-60
2023/11/08 23:44:27;;;;;;;14.00;10.00;;;;;;;4.54;100.00;99302.39;429951;1270;139820;-59
2023/11/08 23:54:34;;;;;;;14.60;10.60;;;;;;;4.19;100.00;99291.71;429849;1272;140505;-59
